Time;durP1;ratioP1;P1;durP2;ratioP2;P2;SDS_P1;SDS_P2;PMS_P1;PMS_P2;Temp;Humidity;BMP_temperature;BMP_pressure;BME280_temperature;BME280_humidity;BME280_pressure;Samples;Min_cycle;Max_cycle;Signal;HPM_P1;HPM_P2
2023/02/28 00:00:37;;;;;;;7.70;2.60;;;;;;;-0.36;55.53;101684.29;108020;1238;61127;-56
2023/02/28 00:03:04;;;;;;;5.70;2.50;;;;;;;-0.38;55.79;101692.59;107973;1236;61185;-56
2023/02/28 00:05:31;;;;;;;6.10;3.00;;;;;;;-0.35;55.55;101693.92;107876;1240;74439;-56
2023/02/28 00:07:58;;;;;;;6.20;2.50;;;;;;;-0.32;55.29;101688.71;107854;1240;71228;-57
2023/02/28 00:10:27;;;;;;;8.50;2.50;;;;;;;-0.30;55.31;101690.92;107915;1238;73375;-57
2023/02/28 00:12:59;;;;;;;8.20;2.60;;;;;;;-0.30;55.61;101690.58;107928;1237;60822;-57
2023/02/28 00:15:26;;;;;;;7.30;2.20;;;;;;;-0.32;55.60;101689.76;107986;1237;60933;-57
2023/02/28 00:17:53;;;;;;;6.30;2.20;;;;;;;-0.33;55.57;101697.19;107892;1240;74668;-59
2023/02/28 00:20:20;;;;;;;7.30;3.20;;;;;;;-0.37;55.57;101698.45;108286;1237;71124;-57
2023/02/28 00:22:49;;;;;;;8.80;2.30;;;;;;;-0.41;55.58;101698.66;107878;1240;72424;-57
2023/02/28 00:25:23;;;;;;;6.50;2.70;;;;;;;-0.43;55.69;101701.79;107814;1240;61539;-58
2023/02/28 00:27:50;;;;;;;6.20;2.20;;;;;;;-0.44;55.57;101702.85;107922;1238;61104;-57
2023/02/28 00:30:21;;;;;;;6.80;2.70;;;;;;;-0.49;55.36;101699.30;108189;1240;74703;-55
2023/02/28 00:32:49;;;;;;;7.10;2.10;;;;;;;-0.54;55.32;101699.34;107833;1237;70904;-56
2023/02/28 00:35:16;;;;;;;6.60;2.70;;;;;;;-0.56;55.63;101701.61;107850;1236;73663;-56
2023/02/28 00:37:43;;;;;;;7.00;2.20;;;;;;;-0.58;55.77;101694.74;108452;1236;61171;-56
2023/02/28 00:40:11;;;;;;;6.80;2.40;;;;;;;-0.59;55.77;101686.30;107820;1237;61077;-56
2023/02/28 00:42:39;;;;;;;6.40;2.60;;;;;;;-0.54;55.76;101690.91;107916;1237;74524;-56
2023/02/28 00:45:08;;;;;;;5.50;2.40;;;;;;;-0.50;55.76;101695.68;107763;1244;71071;-56
2023/02/28 00:47:37;;;;;;;5.50;2.20;;;;;;;-0.45;55.78;101696.31;110165;1238;72643;-56
2023/02/28 00:50:05;;;;;;;6.70;2.40;;;;;;;-0.41;55.38;101696.94;107847;1238;60518;-56
2023/02/28 00:52:32;;;;;;;6.00;2.80;;;;;;;-0.41;55.26;101693.66;110625;1233;60889;-56
2023/02/28 00:54:59;;;;;;;6.20;2.30;;;;;;;-0.37;54.94;101691.88;108325;1237;74779;-56
2023/02/28 00:57:26;;;;;;;8.00;2.10;;;;;;;-0.38;54.77;101692.08;108936;1236;71130;-57
2023/02/28 00:59:56;;;;;;;5.30;2.00;;;;;;;-0.42;55.06;101691.77;107961;1238;73389;-59
2023/02/28 01:02:23;;;;;;;8.70;3.10;;;;;;;-0.51;55.19;101687.77;108018;1234;60492;-56
2023/02/28 01:04:52;;;;;;;4.30;1.80;;;;;;;-0.60;54.97;101686.66;108162;1235;61094;-57
2023/02/28 01:07:19;;;;;;;5.00;1.70;;;;;;;-0.65;55.25;101690.70;108212;1234;74154;-57
2023/02/28 01:09:46;;;;;;;5.90;1.80;;;;;;;-0.68;55.64;101692.98;108245;1236;71116;-56
2023/02/28 01:12:14;;;;;;;8.60;3.30;;;;;;;-0.71;55.61;101691.48;112000;1234;73576;-57
2023/02/28 01:14:42;;;;;;;5.70;1.50;;;;;;;-0.71;55.83;101695.27;111993;1234;60378;-58
2023/02/28 01:17:09;;;;;;;5.70;1.80;;;;;;;-0.70;56.19;101695.77;110939;1236;60115;-58
2023/02/28 01:19:39;;;;;;;8.40;1.90;;;;;;;-0.63;56.14;101694.98;108333;1234;74735;-57
2023/02/28 01:22:06;;;;;;;6.00;2.10;;;;;;;-0.50;55.57;101699.30;108306;1234;71167;-57
2023/02/28 01:24:35;;;;;;;6.10;2.40;;;;;;;-0.41;55.48;101699.54;108306;1238;72694;-57
2023/02/28 01:27:02;;;;;;;7.70;3.00;;;;;;;-0.45;55.71;101698.21;108647;1235;60444;-58
2023/02/28 01:29:29;;;;;;;6.50;2.40;;;;;;;-0.52;55.43;101701.39;108514;1234;60726;-56
2023/02/28 01:31:57;;;;;;;5.90;2.00;;;;;;;-0.54;55.35;101704.52;108310;1236;74434;-57
2023/02/28 01:34:24;;;;;;;5.00;1.80;;;;;;;-0.59;55.66;101706.64;108595;1236;70112;-57
2023/02/28 01:36:51;;;;;;;6.20;2.10;;;;;;;-0.61;55.46;101710.81;108235;1235;73663;-56
2023/02/28 01:39:19;;;;;;;6.50;1.80;;;;;;;-0.63;55.33;101716.88;108497;1234;60688;-57
2023/02/28 01:41:46;;;;;;;4.70;1.80;;;;;;;-0.64;55.41;101717.56;108557;1232;60873;-56
2023/02/28 01:44:51;;;;;;;6.30;3.00;;;;;;;-0.66;55.65;101713.11;108134;1234;74749;-58
2023/02/28 01:47:18;;;;;;;6.60;2.30;;;;;;;-0.66;55.85;101711.91;108287;1233;62499;-57
2023/02/28 01:49:44;;;;;;;6.20;2.30;;;;;;;-0.67;55.93;101707.45;108526;1234;72443;-57
2023/02/28 01:52:17;;;;;;;7.90;2.50;;;;;;;-0.69;56.26;101708.49;108252;1234;60558;-56
2023/02/28 01:54:52;;;;;;;6.20;2.40;;;;;;;-0.64;55.85;101708.79;107976;1239;61032;-56
2023/02/28 01:57:22;;;;;;;7.30;2.60;;;;;;;-0.60;55.60;101711.14;108197;1235;74956;-56
2023/02/28 01:59:52;;;;;;;7.10;2.60;;;;;;;-0.59;55.51;101706.99;108224;1234;70901;-57
2023/02/28 02:02:22;;;;;;;6.50;2.60;;;;;;;-0.60;55.30;101709.25;108356;1236;73633;-57
2023/02/28 02:05:03;;;;;;;5.50;1.50;;;;;;;-0.61;55.47;101711.50;108118;1239;60356;-57
2023/02/28 02:07:32;;;;;;;5.30;1.70;;;;;;;-0.61;55.56;101722.36;108127;1234;62740;-56
2023/02/28 02:10:01;;;;;;;5.40;1.70;;;;;;;-0.62;55.54;101719.96;108460;1236;74619;-56
2023/02/28 02:12:50;;;;;;;6.60;2.30;;;;;;;-0.63;55.54;101719.11;107996;1240;70118;-56
2023/02/28 02:15:34;;;;;;;5.10;2.10;;;;;;;-0.65;55.40;101717.59;108340;1236;64717;-57
2023/02/28 02:18:07;;;;;;;6.20;2.20;;;;;;;-0.66;55.71;101720.88;108606;1234;61541;-56
2023/02/28 02:21:11;;;;;;;4.90;1.60;;;;;;;-0.66;55.70;101721.04;108349;1234;61026;-56
2023/02/28 02:23:44;;;;;;;5.80;1.60;;;;;;;-0.68;55.66;101720.20;108349;1234;66017;-57
2023/02/28 02:26:35;;;;;;;7.90;2.30;;;;;;;-0.70;55.69;101725.91;108210;1235;71276;-57
2023/02/28 02:29:53;;;;;;;5.10;1.80;;;;;;;-0.69;55.57;101728.15;108521;1232;65041;-57
2023/02/28 02:32:43;;;;;;;7.10;2.50;;;;;;;-0.64;55.58;101733.43;108150;1233;60417;-56
2023/02/28 02:35:17;;;;;;;5.20;2.10;;;;;;;-0.59;55.70;101730.27;108110;1232;60525;-56
2023/02/28 02:38:13;;;;;;;5.40;1.70;;;;;;;-0.57;55.48;101732.48;108385;1238;74538;-56
2023/02/28 02:41:03;;;;;;;5.20;2.50;;;;;;;-0.57;55.47;101732.13;108283;1236;62472;-57
2023/02/28 02:43:34;;;;;;;7.70;2.00;;;;;;;-0.55;55.66;101731.08;108641;1234;65453;-56
2023/02/28 02:46:05;;;;;;;4.80;1.90;;;;;;;-0.53;55.70;101727.77;108299;1234;61177;-57
2023/02/28 02:48:33;;;;;;;6.30;2.10;;;;;;;-0.51;55.59;101732.94;108473;1240;60625;-56
2023/02/28 02:51:11;;;;;;;6.40;1.90;;;;;;;-0.49;55.70;101736.36;108072;1233;73081;-57
2023/02/28 02:53:52;;;;;;;8.60;2.30;;;;;;;-0.49;55.56;101738.23;108080;1238;70193;-57
2023/02/28 02:56:21;;;;;;;5.00;2.00;;;;;;;-0.51;55.32;101743.45;108036;1235;73235;-56
2023/02/28 02:58:49;;;;;;;5.70;1.80;;;;;;;-0.50;55.51;101747.92;108119;1238;60423;-56
2023/02/28 03:01:27;;;;;;;6.70;2.50;;;;;;;-0.48;55.65;101752.21;108130;1233;61122;-56
2023/02/28 03:04:03;;;;;;;5.00;1.40;;;;;;;-0.52;55.22;101748.80;108131;1235;75046;-56
2023/02/28 03:06:30;;;;;;;6.90;2.30;;;;;;;-0.51;55.53;101753.62;107891;1234;71106;-56
2023/02/28 03:08:57;;;;;;;5.10;2.00;;;;;;;-0.44;55.56;101753.01;107897;1241;72589;-56
2023/02/28 03:11:23;;;;;;;6.60;2.30;;;;;;;-0.35;55.39;101750.48;108282;1237;60595;-56
2023/02/28 03:14:19;;;;;;;5.90;1.90;;;;;;;-0.30;55.32;101748.19;107937;1235;61165;-57
2023/02/28 03:17:23;;;;;;;6.30;2.50;;;;;;;-0.28;54.65;101753.33;108660;1236;66033;-56
2023/02/28 03:20:03;;;;;;;6.50;2.30;;;;;;;-0.28;54.80;101754.02;108491;1235;61667;-57
2023/02/28 03:22:39;;;;;;;5.60;2.10;;;;;;;-0.29;55.01;101754.72;108358;1236;73515;-56
2023/02/28 03:25:20;;;;;;;7.10;2.40;;;;;;;-0.30;55.01;101760.25;108478;1236;61574;-56
2023/02/28 03:28:13;;;;;;;7.90;3.30;;;;;;;-0.33;54.73;101764.09;108424;1234;60459;-56
2023/02/28 03:31:28;;;;;;;9.00;2.90;;;;;;;-0.38;54.62;101767.44;108593;1236;66424;-57
2023/02/28 03:34:05;;;;;;;7.40;2.30;;;;;;;-0.44;55.05;101769.05;108006;1237;61575;-57
2023/02/28 03:36:43;;;;;;;7.80;1.90;;;;;;;-0.48;55.19;101767.02;108385;1237;73369;-57
2023/02/28 03:39:21;;;;;;;5.90;1.80;;;;;;;-0.52;55.05;101768.28;108594;1236;61706;-57
2023/02/28 03:42:00;;;;;;;6.90;2.60;;;;;;;-0.58;55.22;101774.05;108000;1240;60498;-57
2023/02/28 03:44:34;;;;;;;5.00;1.50;;;;;;;-0.61;55.68;101775.61;107996;1232;73649;-55
2023/02/28 03:47:04;;;;;;;3.80;1.10;;;;;;;-0.59;55.91;101777.33;108253;1234;70891;-56
2023/02/28 03:49:54;;;;;;;6.20;2.00;;;;;;;-0.58;55.58;101775.41;108327;1235;73538;-57
2023/02/28 03:52:22;;;;;;;5.90;1.70;;;;;;;-0.59;55.64;101778.52;108575;1232;60330;-56
2023/02/28 03:54:52;;;;;;;6.20;1.80;;;;;;;-0.62;55.88;101782.00;108031;1235;60521;-56
2023/02/28 03:57:56;;;;;;;5.30;2.00;;;;;;;-0.61;55.98;101781.82;108088;1235;74185;-57
2023/02/28 04:00:33;;;;;;;5.60;2.00;;;;;;;-0.54;55.75;101780.52;108664;1236;62756;-57
2023/02/28 04:02:59;;;;;;;6.70;2.60;;;;;;;-0.44;55.15;101777.50;108367;1234;73318;-56
2023/02/28 04:05:32;;;;;;;6.10;1.80;;;;;;;-0.41;55.35;101778.32;107931;1239;61701;-56
2023/02/28 04:08:06;;;;;;;6.80;2.40;;;;;;;-0.38;55.35;101779.14;107917;1233;60693;-57
2023/02/28 04:10:33;;;;;;;5.10;1.50;;;;;;;-0.35;55.31;101786.18;108787;1236;74738;-59
2023/02/28 04:13:00;;;;;;;8.70;2.50;;;;;;;-0.35;55.07;101786.01;108606;1236;71176;-56
2023/02/28 04:15:27;;;;;;;6.40;2.00;;;;;;;-0.35;55.07;101790.33;108287;1236;73363;-57
2023/02/28 04:17:54;;;;;;;5.50;2.00;;;;;;;-0.36;55.10;101788.45;108438;1236;60599;-56
2023/02/28 04:20:21;;;;;;;5.60;2.00;;;;;;;-0.36;55.21;101790.85;108329;1234;61105;-56
2023/02/28 04:22:48;;;;;;;8.20;2.30;;;;;;;-0.38;55.17;101789.99;108779;1236;74754;-57
2023/02/28 04:25:15;;;;;;;8.20;2.40;;;;;;;-0.38;55.22;101788.27;108454;1236;70796;-57
2023/02/28 04:27:44;;;;;;;5.40;1.50;;;;;;;-0.35;55.36;101793.08;108444;1236;73621;-56
2023/02/28 04:30:12;;;;;;;7.00;2.60;;;;;;;-0.34;55.34;101791.35;108424;1235;61106;-56
2023/02/28 04:32:39;;;;;;;6.90;2.40;;;;;;;-0.33;55.15;101790.47;108552;1234;61636;-56
2023/02/28 04:35:07;;;;;;;6.20;2.40;;;;;;;-0.33;54.85;101785.98;108338;1233;74805;-57
2023/02/28 04:37:34;;;;;;;7.10;2.60;;;;;;;-0.35;54.74;101786.70;108479;1236;70999;-57
2023/02/28 04:40:02;;;;;;;5.20;1.80;;;;;;;-0.38;54.83;101786.73;108428;1234;73300;-56
2023/02/28 04:42:35;;;;;;;6.50;2.80;;;;;;;-0.41;54.70;101787.64;108401;1237;61046;-57
2023/02/28 04:45:03;;;;;;;5.90;1.90;;;;;;;-0.45;54.72;101790.44;108323;1236;61550;-56
2023/02/28 04:47:30;;;;;;;6.50;2.40;;;;;;;-0.48;54.85;101790.81;108796;1236;218771;-56
2023/02/28 04:49:56;;;;;;;9.10;3.70;;;;;;;-0.51;54.77;101792.40;108382;1236;71289;-56
2023/02/28 05:04:14;;;;;;;6.10;2.10;;;;;;;-0.23;54.47;101789.92;105492;1264;603252;-56
2023/02/28 05:06:42;;;;;;;8.30;2.60;;;;;;;0.23;53.31;101787.30;107014;1249;247741;-59
2023/02/28 05:09:11;;;;;;;5.80;2.10;;;;;;;0.13;53.24;101790.21;107350;1243;59995;-58
2023/02/28 05:11:39;;;;;;;6.40;2.40;;;;;;;0.03;53.58;101799.15;107149;1243;72079;-57
2023/02/28 05:14:11;;;;;;;6.10;2.30;;;;;;;-0.07;53.72;101797.73;107367;1244;71173;-57
2023/02/28 05:16:38;;;;;;;7.20;3.00;;;;;;;-0.17;53.62;101799.07;107313;1247;73055;-57
2023/02/28 05:19:05;;;;;;;6.80;2.50;;;;;;;-0.25;53.81;101801.91;107263;1244;60269;-57
2023/02/28 05:21:34;;;;;;;7.10;2.00;;;;;;;-0.33;53.97;101804.77;107464;1244;60901;-58
2023/02/28 05:24:03;;;;;;;8.90;3.30;;;;;;;-0.38;54.26;101801.38;107334;1248;72848;-57
2023/02/28 05:26:30;;;;;;;6.90;2.10;;;;;;;-0.40;54.42;101803.30;107568;1248;71081;-58
2023/02/28 05:28:57;;;;;;;6.10;1.80;;;;;;;-0.40;54.23;101804.68;107688;1241;73147;-57
2023/02/28 05:31:24;;;;;;;6.20;2.60;;;;;;;-0.40;54.18;101808.99;107422;1241;60930;-57
2023/02/28 05:33:51;;;;;;;6.30;3.10;;;;;;;-0.40;54.05;101812.79;107557;1240;61222;-57
2023/02/28 05:36:20;;;;;;;7.40;2.60;;;;;;;-0.39;54.21;101815.89;107782;1244;73894;-56
2023/02/28 05:38:48;;;;;;;6.60;2.20;;;;;;;-0.36;54.19;101812.73;107606;1244;71289;-57
2023/02/28 05:41:19;;;;;;;5.70;1.80;;;;;;;-0.36;53.83;101815.50;107987;1244;72614;-57
2023/02/28 05:43:47;;;;;;;5.00;1.90;;;;;;;-0.42;53.68;101814.88;107630;1240;61180;-56
2023/02/28 05:46:14;;;;;;;6.60;2.20;;;;;;;-0.49;53.59;101818.58;107498;1240;61213;-57
2023/02/28 05:48:42;;;;;;;6.20;3.30;;;;;;;-0.57;53.60;101815.39;107494;1244;73854;-56
2023/02/28 05:51:09;;;;;;;10.50;3.10;;;;;;;-0.60;53.76;101822.14;107669;1245;71323;-56
2023/02/28 05:53:36;;;;;;;5.20;1.80;;;;;;;-0.61;53.97;101822.16;107516;1244;72465;-56
2023/02/28 05:56:03;;;;;;;5.00;2.00;;;;;;;-0.61;53.96;101824.73;107435;1240;61156;-56
2023/02/28 05:58:34;;;;;;;6.80;2.70;;;;;;;-0.59;53.81;101827.13;107658;1240;61150;-56
2023/02/28 06:01:19;;;;;;;5.10;2.10;;;;;;;-0.59;53.62;101832.99;107495;1244;73977;-57
2023/02/28 06:03:47;;;;;;;4.90;1.70;;;;;;;-0.59;53.25;101831.44;107745;1241;71304;-56
2023/02/28 06:06:14;;;;;;;5.90;2.60;;;;;;;-0.60;53.17;101832.15;107815;1244;73513;-56
2023/02/28 06:08:43;;;;;;;4.40;1.90;;;;;;;-0.62;53.11;101831.30;107411;1241;61086;-57
2023/02/28 06:11:13;;;;;;;6.10;1.60;;;;;;;-0.63;52.67;101834.77;107443;1240;60927;-56
2023/02/28 06:13:40;;;;;;;4.80;1.40;;;;;;;-0.65;52.52;101836.34;107751;1245;73973;-57
2023/02/28 06:16:09;;;;;;;7.20;2.10;;;;;;;-0.71;52.65;101837.08;107596;1244;71468;-57
2023/02/28 06:18:37;;;;;;;6.40;3.10;;;;;;;-0.71;52.88;101833.13;108636;1247;73227;-56
2023/02/28 06:21:04;;;;;;;7.30;2.40;;;;;;;-0.64;53.01;101835.63;108321;1234;61241;-56
2023/02/28 06:23:31;;;;;;;6.20;2.00;;;;;;;-0.56;52.87;101838.83;108256;1237;61327;-56
2023/02/28 06:25:59;;;;;;;5.30;1.90;;;;;;;-0.50;52.86;101843.76;108251;1237;74032;-56
2023/02/28 06:28:26;;;;;;;6.70;2.40;;;;;;;-0.46;52.86;101840.27;108278;1236;70010;-57
2023/02/28 06:30:54;;;;;;;14.00;4.10;;;;;;;-0.44;52.79;101835.43;108306;1237;73514;-57
2023/02/28 06:33:21;;;;;;;7.00;3.00;;;;;;;-0.42;52.79;101838.15;108172;1234;61042;-58
2023/02/28 06:35:51;;;;;;;8.10;3.10;;;;;;;-0.42;52.75;101836.42;108521;1234;61179;-56
2023/02/28 06:38:18;;;;;;;10.90;3.10;;;;;;;-0.39;52.81;101828.65;108381;1234;72929;-56
2023/02/28 06:40:55;;;;;;;6.90;2.10;;;;;;;-0.34;52.89;101826.35;108316;1237;71093;-57
2023/02/28 06:43:22;;;;;;;8.70;2.70;;;;;;;-0.31;52.36;101828.03;107971;1239;72359;-57
2023/02/28 06:45:49;;;;;;;11.50;3.90;;;;;;;-0.33;52.31;101827.70;108289;1237;61378;-57
2023/02/28 06:48:21;;;;;;;6.70;2.80;;;;;;;-0.35;52.20;101833.60;108476;1237;61191;-57
2023/02/28 06:50:48;;;;;;;8.80;2.60;;;;;;;-0.37;52.14;101831.38;108340;1237;73802;-56
2023/02/28 06:53:16;;;;;;;7.70;2.50;;;;;;;-0.39;52.10;101832.60;108514;1236;70941;-57
2023/02/28 06:55:43;;;;;;;11.60;4.30;;;;;;;-0.39;52.52;101832.08;108431;1237;73407;-58
2023/02/28 06:58:18;;;;;;;8.20;3.60;;;;;;;-0.36;52.41;101829.81;108150;1237;59876;-57
2023/02/28 07:00:45;;;;;;;8.10;2.60;;;;;;;-0.32;52.41;101833.22;108282;1235;60214;-55
2023/02/28 07:03:15;;;;;;;9.00;2.90;;;;;;;-0.31;52.06;101830.45;109813;1235;73100;-58
2023/02/28 07:05:42;;;;;;;10.70;3.90;;;;;;;-0.31;52.07;101825.79;108263;1237;70954;-59
2023/02/28 07:08:11;;;;;;;7.80;3.80;;;;;;;-0.38;52.03;101828.28;107933;1239;73644;-58
2023/02/28 07:10:38;;;;;;;9.10;3.30;;;;;;;-0.42;52.44;101832.46;108150;1237;61701;-58
2023/02/28 07:13:05;;;;;;;8.40;3.70;;;;;;;-0.42;52.85;101830.23;108101;1235;61232;-58
2023/02/28 07:15:34;;;;;;;9.20;3.90;;;;;;;-0.40;52.88;101821.77;108576;1237;73910;-58
2023/02/28 07:18:03;;;;;;;8.40;2.70;;;;;;;-0.41;52.69;101820.55;107900;1237;70884;-58
2023/02/28 07:20:30;;;;;;;7.50;2.60;;;;;;;-0.45;52.63;101819.91;108068;1234;72249;-58
2023/02/28 07:22:56;;;;;;;8.40;3.50;;;;;;;-0.47;52.96;101826.14;107897;1237;60919;-56
2023/02/28 07:25:26;;;;;;;7.60;3.30;;;;;;;-0.45;53.10;101830.61;107946;1235;61070;-57
2023/02/28 07:27:54;;;;;;;7.80;2.80;;;;;;;-0.41;53.31;101830.40;108070;1236;72781;-56
2023/02/28 07:30:21;;;;;;;7.90;3.10;;;;;;;-0.34;53.48;101823.92;108092;1237;70927;-56
2023/02/28 07:32:49;;;;;;;9.10;3.00;;;;;;;-0.29;52.76;101824.04;108092;1236;73652;-56
2023/02/28 07:35:16;;;;;;;12.30;4.70;;;;;;;-0.28;52.99;101824.38;108076;1241;61018;-57
2023/02/28 07:37:43;;;;;;;9.40;3.80;;;;;;;-0.27;52.77;101824.36;107928;1234;60893;-57
2023/02/28 07:40:11;;;;;;;7.70;3.00;;;;;;;-0.28;52.79;101824.39;107993;1233;73907;-57
2023/02/28 07:42:42;;;;;;;7.80;2.80;;;;;;;-0.29;52.84;101826.63;108180;1234;71186;-57
2023/02/28 07:45:11;;;;;;;8.10;4.20;;;;;;;-0.28;52.68;101830.23;107915;1236;73508;-59
2023/02/28 07:47:38;;;;;;;7.60;2.70;;;;;;;-0.26;52.82;101828.33;108155;1237;60399;-57
2023/02/28 07:50:07;;;;;;;10.60;4.70;;;;;;;-0.20;53.07;101831.18;107890;1234;61084;-57
2023/02/28 07:52:34;;;;;;;9.60;3.00;;;;;;;-0.14;52.66;101825.77;107953;1237;73597;-58
2023/02/28 07:55:01;;;;;;;8.40;3.20;;;;;;;-0.09;52.55;101827.08;108747;1237;70953;-57
2023/02/28 07:57:28;;;;;;;12.20;4.70;;;;;;;-0.08;52.14;101828.45;107869;1236;73742;-56
2023/02/28 07:59:55;;;;;;;6.90;2.90;;;;;;;-0.06;52.03;101833.42;107993;1234;61251;-56
2023/02/28 08:02:22;;;;;;;7.50;3.40;;;;;;;-0.07;52.13;101835.84;107843;1233;61076;-57
2023/02/28 08:04:51;;;;;;;7.70;3.50;;;;;;;-0.00;52.07;101837.34;108156;1237;73917;-59
2023/02/28 08:07:37;;;;;;;11.20;4.70;;;;;;;0.04;51.70;101836.24;108058;1235;72955;-58
2023/02/28 08:10:05;;;;;;;13.40;3.90;;;;;;;0.07;51.72;101836.02;107769;1239;73443;-57
2023/02/28 08:12:32;;;;;;;6.60;2.90;;;;;;;0.09;51.78;101833.75;108295;1234;60950;-56
2023/02/28 08:14:59;;;;;;;9.90;3.80;;;;;;;0.12;51.73;101836.48;108020;1238;60215;-56
2023/02/28 08:17:26;;;;;;;9.20;2.70;;;;;;;0.12;51.63;101834.08;107955;1235;73896;-56
2023/02/28 08:19:53;;;;;;;9.10;3.40;;;;;;;0.10;51.57;101831.84;108305;1235;70587;-56
2023/02/28 08:22:20;;;;;;;8.90;2.70;;;;;;;0.08;51.53;101832.55;107978;1237;73359;-56
2023/02/28 08:24:49;;;;;;;7.10;3.10;;;;;;;0.08;51.67;101828.93;108257;1234;61011;-56
2023/02/28 08:27:17;;;;;;;8.10;4.10;;;;;;;0.12;51.52;101826.81;108312;1235;61017;-58
2023/02/28 08:29:45;;;;;;;9.60;3.90;;;;;;;0.17;51.39;101827.42;108660;1236;74408;-57
2023/02/28 08:32:12;;;;;;;8.90;3.50;;;;;;;0.22;51.35;101829.79;108103;1234;71024;-56
2023/02/28 08:34:55;;;;;;;9.40;3.80;;;;;;;0.29;51.54;101832.09;108076;1237;73785;-57
2023/02/28 08:37:22;;;;;;;10.30;3.90;;;;;;;0.37;51.35;101833.89;108231;1234;60328;-56
2023/02/28 08:39:49;;;;;;;14.60;5.40;;;;;;;0.41;50.98;101834.86;107984;1233;59555;-57
2023/02/28 08:42:16;;;;;;;8.00;3.10;;;;;;;0.44;50.94;101834.83;107957;1234;72879;-57
2023/02/28 08:44:43;;;;;;;9.20;4.50;;;;;;;0.48;50.96;101833.20;108031;1238;71365;-56
2023/02/28 08:47:10;;;;;;;8.90;4.00;;;;;;;0.55;51.14;101835.17;107961;1240;73836;-56
2023/02/28 08:49:37;;;;;;;7.30;3.10;;;;;;;0.62;50.74;101832.14;108068;1243;59634;-56
2023/02/28 08:52:04;;;;;;;9.00;4.00;;;;;;;0.68;50.78;101832.90;108151;1237;60079;-56
2023/02/28 08:54:33;;;;;;;10.30;2.70;;;;;;;0.73;50.72;101830.60;108001;1238;74169;-57
2023/02/28 08:57:00;;;;;;;8.30;3.40;;;;;;;0.72;50.62;101825.92;108003;1235;70337;-57
2023/02/28 08:59:27;;;;;;;7.80;3.30;;;;;;;0.74;50.57;101830.22;108658;1237;73614;-57
2023/02/28 09:01:55;;;;;;;7.50;2.70;;;;;;;0.72;50.29;101833.20;108718;1234;61318;-56
2023/02/28 09:04:22;;;;;;;8.30;3.70;;;;;;;0.67;50.34;101833.44;107979;1234;61010;-61
2023/02/28 09:06:51;;;;;;;9.10;2.80;;;;;;;0.64;50.58;101834.34;107638;1242;73864;-60
2023/02/28 09:09:19;;;;;;;7.40;3.00;;;;;;;0.67;50.64;101830.86;107877;1234;71405;-59
2023/02/28 09:11:46;;;;;;;7.40;2.90;;;;;;;0.76;50.57;101825.52;108150;1238;73433;-59
2023/02/28 09:14:14;;;;;;;7.70;3.30;;;;;;;0.80;50.56;101824.95;107650;1237;60521;-61
2023/02/28 09:16:41;;;;;;;8.20;3.00;;;;;;;0.88;50.62;101826.20;107932;1237;61164;-61
2023/02/28 09:19:11;;;;;;;7.90;3.00;;;;;;;0.96;50.17;101827.63;107892;1237;73766;-60
2023/02/28 09:21:38;;;;;;;8.40;3.60;;;;;;;0.99;49.24;101827.56;108300;1234;70261;-60
2023/02/28 09:24:06;;;;;;;7.50;2.90;;;;;;;0.96;49.16;101815.35;107991;1238;73869;-59
2023/02/28 09:26:34;;;;;;;9.60;3.60;;;;;;;0.91;49.10;101810.07;108124;1238;60554;-60
2023/02/28 09:29:16;;;;;;;9.80;3.70;;;;;;;0.84;49.46;101811.56;107980;1242;61065;-58
2023/02/28 09:31:43;;;;;;;6.50;2.30;;;;;;;0.83;49.73;101807.98;108022;1237;73886;-59
2023/02/28 09:34:10;;;;;;;9.10;3.00;;;;;;;0.84;49.51;101810.36;107874;1234;71110;-61
2023/02/28 09:36:37;;;;;;;6.70;2.90;;;;;;;0.84;49.36;101807.42;109085;1238;73451;-58
2023/02/28 09:39:14;;;;;;;7.90;3.30;;;;;;;0.89;49.34;101803.02;107920;1235;60772;-59
2023/02/28 09:41:50;;;;;;;8.90;3.10;;;;;;;0.97;49.30;101797.70;109026;1236;60409;-58
2023/02/28 09:44:20;;;;;;;8.00;3.60;;;;;;;1.10;49.05;101792.64;107782;1235;73539;-58
2023/02/28 09:46:50;;;;;;;8.00;3.40;;;;;;;1.22;49.02;101795.35;108409;1235;71049;-56
2023/02/28 09:49:19;;;;;;;7.50;3.30;;;;;;;1.24;48.36;101792.38;108180;1234;73428;-57
2023/02/28 09:51:51;;;;;;;13.00;3.60;;;;;;;1.22;48.47;101791.39;108196;1234;60663;-58
2023/02/28 09:54:21;;;;;;;8.70;2.80;;;;;;;1.19;48.24;101788.33;107596;1239;61046;-58
2023/02/28 09:57:07;;;;;;;8.20;3.40;;;;;;;1.17;47.98;101784.73;108048;1236;74757;-57
2023/02/28 09:59:52;;;;;;;8.70;3.00;;;;;;;1.17;48.27;101780.93;108811;1234;71170;-58
2023/02/28 10:02:31;;;;;;;7.80;3.60;;;;;;;1.24;48.29;101771.64;108211;1244;72203;-55
2023/02/28 10:05:10;;;;;;;9.90;2.90;;;;;;;1.27;47.67;101781.79;108368;1239;60422;-58
2023/02/28 10:07:58;;;;;;;7.10;3.10;;;;;;;1.20;47.72;101776.56;107786;1235;61726;-59
2023/02/28 10:10:42;;;;;;;7.20;2.50;;;;;;;1.15;48.08;101769.73;107840;1237;72903;-59
2023/02/28 10:13:17;;;;;;;8.10;3.20;;;;;;;1.20;48.43;101762.21;107911;1238;71553;-58
2023/02/28 10:15:44;;;;;;;6.20;2.70;;;;;;;1.35;48.69;101765.73;107805;1234;72935;-57
2023/02/28 10:18:15;;;;;;;7.70;3.60;;;;;;;1.46;47.89;101758.77;108061;1235;60487;-59
2023/02/28 10:20:42;;;;;;;9.10;3.40;;;;;;;1.47;47.56;101750.45;107749;1239;60568;-59
2023/02/28 10:23:20;;;;;;;7.90;3.70;;;;;;;1.46;47.65;101754.45;107597;1234;73004;-57
2023/02/28 10:26:05;;;;;;;7.10;2.70;;;;;;;1.50;47.81;101755.04;107954;1237;70057;-59
2023/02/28 10:28:32;;;;;;;7.50;2.50;;;;;;;1.56;47.52;101756.14;108085;1237;72475;-59
2023/02/28 10:30:59;;;;;;;6.80;3.00;;;;;;;1.59;47.70;101747.27;108166;1237;60476;-58
2023/02/28 10:33:34;;;;;;;9.80;4.10;;;;;;;1.63;47.89;101742.51;107864;1237;61539;-58
2023/02/28 10:36:01;;;;;;;10.70;3.90;;;;;;;1.74;47.76;101741.08;107967;1237;74436;-58
2023/02/28 10:38:35;;;;;;;9.60;3.80;;;;;;;1.81;47.61;101747.32;107848;1237;70175;-58
2023/02/28 10:41:04;;;;;;;7.40;3.50;;;;;;;1.85;47.52;101749.99;107914;1237;72313;-59
2023/02/28 10:43:31;;;;;;;7.20;2.90;;;;;;;1.89;47.51;101744.56;108072;1237;61672;-58
2023/02/28 10:46:14;;;;;;;6.50;2.60;;;;;;;1.96;47.40;101732.63;107804;1239;61271;-57
2023/02/28 10:48:47;;;;;;;7.20;2.60;;;;;;;2.06;47.04;101734.30;108148;1235;74516;-57
2023/02/28 10:51:15;;;;;;;8.70;2.80;;;;;;;2.12;46.98;101740.23;107687;1238;71111;-58
2023/02/28 10:53:43;;;;;;;8.80;4.10;;;;;;;2.13;46.55;101727.23;108116;1238;73831;-58
2023/02/28 10:56:27;;;;;;;6.90;2.70;;;;;;;2.14;46.27;101720.80;107796;1238;61475;-60
2023/02/28 10:59:02;;;;;;;8.10;3.20;;;;;;;2.18;46.19;101720.88;108034;1237;61552;-54
2023/02/28 11:01:32;;;;;;;9.60;3.60;;;;;;;2.23;45.92;101720.93;108250;1235;73935;-56
2023/02/28 11:03:59;;;;;;;12.30;5.10;;;;;;;2.20;46.26;101720.81;107916;1237;71374;-54
2023/02/28 11:06:29;;;;;;;7.80;3.10;;;;;;;2.20;46.25;101721.88;108168;1236;73266;-55
2023/02/28 11:09:02;;;;;;;8.60;2.70;;;;;;;2.24;46.01;101725.06;108036;1235;60440;-55
2023/02/28 11:11:31;;;;;;;6.60;2.80;;;;;;;2.22;45.80;101727.01;108200;1235;61387;-55
2023/02/28 11:14:04;;;;;;;8.30;3.80;;;;;;;2.20;45.89;101716.67;107914;1237;74518;-55
2023/02/28 11:16:33;;;;;;;6.80;2.50;;;;;;;2.25;45.71;101708.77;107883;1233;70964;-55
2023/02/28 11:19:06;;;;;;;9.10;3.50;;;;;;;2.29;45.55;101706.77;107883;1238;73445;-55
2023/02/28 11:21:34;;;;;;;10.30;4.60;;;;;;;2.33;45.73;101712.39;107732;1238;60431;-54
2023/02/28 11:24:24;;;;;;;8.20;3.90;;;;;;;2.32;45.39;101708.92;107921;1235;60459;-55
2023/02/28 11:26:51;;;;;;;7.50;3.10;;;;;;;2.30;45.49;101702.77;108140;1237;74805;-55
2023/02/28 11:29:22;;;;;;;11.90;3.60;;;;;;;2.35;45.58;101704.52;107815;1235;70862;-55
2023/02/28 11:32:18;;;;;;;7.10;3.70;;;;;;;2.41;45.22;101700.06;107864;1238;73732;-54
2023/02/28 11:34:46;;;;;;;7.50;3.20;;;;;;;2.45;44.90;101710.71;107935;1238;60579;-56
2023/02/28 11:37:18;;;;;;;8.60;3.40;;;;;;;2.41;44.96;101703.18;107809;1237;61472;-56
2023/02/28 11:39:45;;;;;;;6.00;2.30;;;;;;;2.42;45.06;101695.52;108016;1237;74469;-55
2023/02/28 11:42:15;;;;;;;5.60;2.50;;;;;;;2.51;45.09;101702.25;108073;1240;71067;-55
2023/02/28 11:44:51;;;;;;;8.30;4.40;;;;;;;2.56;44.85;101692.58;107856;1244;72539;-56
2023/02/28 11:47:26;;;;;;;8.50;3.30;;;;;;;2.66;44.97;101691.48;107852;1233;60539;-56
2023/02/28 11:50:15;;;;;;;6.30;2.70;;;;;;;2.77;43.80;101682.33;107856;1240;61147;-54